createdAt,value
2018-04-09T00:00:34.861Z,66.44
2018-04-09T00:03:02.410Z,67.51
2018-04-09T00:05:29.974Z,67.01
2018-04-09T00:07:57.503Z,66.36
2018-04-09T00:10:25.717Z,66.80
2018-04-09T00:12:53.245Z,66.83
2018-04-09T00:15:20.858Z,67.66
2018-04-09T00:17:48.381Z,67.98
2018-04-09T00:20:15.949Z,68.04
2018-04-09T00:22:43.489Z,68.32
2018-04-09T00:25:11.097Z,68.24
2018-04-09T00:27:38.625Z,68.99
2018-04-09T00:30:06.233Z,68.01
2018-04-09T00:32:33.758Z,67.80
2018-04-09T00:35:01.297Z,68.75
2018-04-09T00:37:28.845Z,69.18
2018-04-09T00:39:56.471Z,69.35
2018-04-09T00:42:24.031Z,69.47
2018-04-09T00:44:51.567Z,69.00
2018-04-09T00:47:19.099Z,69.00
2018-04-09T00:49:46.711Z,69.18
2018-04-09T00:52:14.266Z,68.97
2018-04-09T00:54:41.786Z,68.51
2018-04-09T00:57:09.313Z,69.46
2018-04-09T00:59:36.848Z,69.01
2018-04-09T01:02:04.386Z,69.34
2018-04-09T01:04:31.928Z,70.20
2018-04-09T01:06:59.457Z,69.72
2018-04-09T01:09:27.091Z,70.66
2018-04-09T01:11:54.659Z,69.60
2018-04-09T01:14:22.194Z,70.59
2018-04-09T01:16:49.722Z,70.68
2018-04-09T01:19:17.330Z,70.66
2018-04-09T01:21:44.889Z,70.59
2018-04-09T01:24:12.411Z,70.47
2018-04-09T01:26:40.011Z,70.70
2018-04-09T01:29:07.541Z,70.84
2018-04-09T01:31:35.129Z,70.68
2018-04-09T01:34:02.660Z,72.00
2018-04-09T01:36:30.209Z,72.72
2018-04-09T01:38:57.808Z,72.68
2018-04-09T01:41:25.369Z,72.44
2018-04-09T01:43:52.902Z,72.31
2018-04-09T01:46:20.424Z,71.64
2018-04-09T01:48:47.941Z,72.70
2018-04-09T01:51:15.476Z,72.59
2018-04-09T01:53:43.067Z,72.41
2018-04-09T01:56:10.732Z,71.82
2018-04-09T01:58:38.262Z,72.32
2018-04-09T02:01:05.788Z,73.47
2018-04-09T02:03:33.346Z,73.16
2018-04-09T02:06:00.865Z,72.92
2018-04-09T02:08:28.401Z,72.39
2018-04-09T02:10:55.926Z,72.34
2018-04-09T02:13:23.444Z,72.98
2018-04-09T02:15:50.978Z,73.35
2018-04-09T02:18:18.506Z,74.18
2018-04-09T02:20:46.039Z,73.18
2018-04-09T02:23:13.583Z,73.18
2018-04-09T02:25:41.134Z,73.73
2018-04-09T02:28:08.668Z,74.31
2018-04-09T02:30:36.188Z,74.03
2018-04-09T02:33:03.823Z,73.95
2018-04-09T02:35:31.350Z,74.57
2018-04-09T02:37:58.870Z,74.19
2018-04-09T02:40:26.400Z,73.26
2018-04-09T02:42:53.925Z,73.56
2018-04-09T02:45:21.439Z,74.53
2018-04-09T02:47:48.978Z,74.50
2018-04-09T02:50:16.488Z,74.41
2018-04-09T02:52:44.018Z,73.86
2018-04-09T02:55:11.550Z,73.75
2018-04-09T02:57:39.083Z,73.99
2018-04-09T03:00:06.617Z,73.95
2018-04-09T03:02:34.146Z,74.22
2018-04-09T03:05:01.677Z,75.39
2018-04-09T03:07:29.206Z,75.47
2018-04-09T03:09:56.749Z,74.73
2018-04-09T03:12:24.280Z,74.69
2018-04-09T03:14:51.927Z,74.27
2018-04-09T03:17:19.492Z,74.95
2018-04-09T03:19:47.052Z,75.61
2018-04-09T03:22:14.577Z,75.74
2018-04-09T03:24:42.167Z,75.42
2018-04-09T03:27:09.718Z,74.83
2018-04-09T03:29:37.293Z,75.18
2018-04-09T03:32:04.819Z,74.52
2018-04-09T03:34:32.350Z,75.41
2018-04-09T03:36:59.871Z,74.96
2018-04-09T03:39:27.392Z,75.21
2018-04-09T03:41:54.921Z,75.11
2018-04-09T03:44:22.482Z,75.50
2018-04-09T03:46:50.114Z,76.15
2018-04-09T03:49:17.639Z,75.37
2018-04-09T03:51:45.165Z,75.46
2018-04-09T03:54:12.683Z,76.01
2018-04-09T03:56:40.214Z,76.32
2018-04-09T03:59:07.752Z,75.99
2018-04-09T04:01:35.285Z,75.81
2018-04-09T04:04:02.823Z,75.56
2018-04-09T04:06:30.353Z,75.42
2018-04-09T04:08:57.865Z,76.16
2018-04-09T04:11:25.402Z,76.30
2018-04-09T04:13:52.930Z,76.35
2018-04-09T04:16:32.204Z,75.77
2018-04-09T04:19:11.732Z,76.34
2018-04-09T04:21:45.218Z,76.71
2018-04-09T04:24:12.786Z,76.76
2018-04-09T04:26:40.312Z,76.73
2018-04-09T04:29:07.842Z,76.49
2018-04-09T04:31:35.375Z,76.25
2018-04-09T04:34:02.893Z,76.25
2018-04-09T04:36:30.430Z,76.52
2018-04-09T04:38:57.998Z,76.98
2018-04-09T04:41:25.516Z,77.18
2018-04-09T04:43:53.067Z,77.06
2018-04-09T04:46:20.615Z,76.84
2018-04-09T04:48:48.129Z,76.41
2018-04-09T04:51:15.649Z,76.86
2018-04-09T04:53:43.208Z,77.36
2018-04-09T04:56:10.753Z,77.50
2018-04-09T04:58:38.372Z,77.15
2018-04-09T05:01:05.888Z,77.04
2018-04-09T05:03:33.443Z,77.68
2018-04-09T05:06:00.962Z,77.28
2018-04-09T05:08:28.493Z,76.89
2018-04-09T05:10:56.025Z,76.72
2018-04-09T05:13:23.558Z,76.56
2018-04-09T05:15:51.142Z,76.64
2018-04-09T05:18:18.693Z,76.41
2018-04-09T05:20:46.230Z,75.69
2018-04-09T05:23:13.768Z,75.52
2018-04-09T05:25:41.386Z,75.56
2018-04-09T05:28:08.909Z,75.54
2018-04-09T05:30:36.502Z,74.48
2018-04-09T05:33:04.035Z,73.81
2018-04-09T05:35:31.625Z,73.54
2018-04-09T05:37:59.156Z,72.82
2018-04-09T05:40:26.745Z,72.29
2018-04-09T05:42:54.289Z,71.90
2018-04-09T05:45:22.073Z,70.33
2018-04-09T05:47:49.596Z,70.03
2018-04-09T05:50:17.114Z,69.15
2018-04-09T05:52:44.747Z,69.14
2018-04-09T05:55:12.276Z,68.52
2018-04-09T05:57:39.833Z,67.88
2018-04-09T06:00:07.402Z,65.24
2018-04-09T06:02:34.925Z,64.30
2018-04-09T06:05:02.471Z,63.50
2018-04-09T06:07:29.992Z,62.16
2018-04-09T06:09:57.520Z,60.98
2018-04-09T06:12:25.123Z,60.02
2018-04-09T06:14:52.674Z,58.88
2018-04-09T06:17:20.213Z,58.55
2018-04-09T06:19:47.807Z,57.59
2018-04-09T06:22:15.338Z,58.71
2018-04-09T06:24:42.923Z,59.40
2018-04-09T06:27:10.468Z,57.70
2018-04-09T06:29:38.012Z,55.30
2018-04-09T06:32:05.547Z,54.19
2018-04-09T06:34:33.090Z,52.78
2018-04-09T06:37:00.625Z,52.62
2018-04-09T06:39:28.156Z,51.17
2018-04-09T06:41:55.703Z,51.51
2018-04-09T06:44:23.233Z,50.30
2018-04-09T06:46:50.762Z,49.32
2018-04-09T06:49:18.277Z,48.31
2018-04-09T06:51:45.815Z,47.58
2018-04-09T06:54:13.346Z,47.34
2018-04-09T06:56:40.895Z,46.44
2018-04-09T06:59:08.426Z,45.82
2018-04-09T07:01:35.965Z,44.88
2018-04-09T07:04:03.521Z,44.17
2018-04-09T07:06:31.056Z,44.43
2018-04-09T07:08:58.653Z,43.62
2018-04-09T07:11:26.224Z,43.32
2018-04-09T07:13:53.788Z,41.86
2018-04-09T07:16:21.365Z,42.00
2018-04-09T07:18:48.874Z,41.39
2018-04-09T07:21:16.498Z,40.98
2018-04-09T07:23:44.029Z,41.66
2018-04-09T07:26:11.553Z,41.91
2018-04-09T07:28:39.123Z,41.54
2018-04-09T07:31:06.656Z,40.20
2018-04-09T07:33:34.301Z,40.05
2018-04-09T07:36:01.826Z,40.88
2018-04-09T07:38:29.430Z,40.03
2018-04-09T07:40:56.961Z,41.25
2018-04-09T07:43:24.497Z,38.86
2018-04-09T07:45:52.068Z,39.12
2018-04-09T07:48:19.602Z,39.02
2018-04-09T07:50:47.162Z,39.44
2018-04-09T07:53:14.740Z,39.95
2018-04-09T07:55:42.291Z,38.48
2018-04-09T07:58:09.859Z,38.79
2018-04-09T08:00:37.458Z,39.05
2018-04-09T08:03:04.987Z,38.95
2018-04-09T08:05:32.519Z,39.99
2018-04-09T08:08:00.125Z,38.44
2018-04-09T08:10:27.665Z,39.71
2018-04-09T08:12:55.247Z,37.25
2018-04-09T08:15:22.788Z,36.18
2018-04-09T08:17:50.322Z,36.14
2018-04-09T08:20:17.865Z,38.53
2018-04-09T08:22:45.517Z,37.29
2018-04-09T08:25:13.105Z,39.59
2018-04-09T08:27:40.640Z,37.22
2018-04-09T08:30:08.178Z,38.57
2018-04-09T08:32:35.706Z,39.12
2018-04-09T08:35:03.236Z,39.09
2018-04-09T08:37:30.832Z,39.90
2018-04-09T08:39:58.355Z,37.54
2018-04-09T08:42:25.910Z,36.34
2018-04-09T08:44:53.538Z,38.06
2018-04-09T08:47:21.069Z,38.41
2018-04-09T08:49:48.614Z,36.73
2018-04-09T08:52:16.137Z,38.03
2018-04-09T08:54:43.675Z,36.29
2018-04-09T08:57:11.201Z,35.43
2018-04-09T08:59:38.799Z,36.88
2018-04-09T09:02:06.322Z,36.51
2018-04-09T09:04:33.851Z,36.89
2018-04-09T09:07:01.376Z,35.40
2018-04-09T09:09:28.931Z,34.75
2018-04-09T09:11:56.493Z,34.44
2018-04-09T09:14:24.011Z,34.73
2018-04-09T09:16:51.534Z,32.56
2018-04-09T09:19:19.182Z,32.25
2018-04-09T09:21:46.702Z,32.46
2018-04-09T09:24:14.249Z,32.16
2018-04-09T09:26:41.806Z,30.03
2018-04-09T09:29:10.246Z,27.58
2018-04-09T09:31:37.760Z,25.85
2018-04-09T09:34:05.325Z,28.03
2018-04-09T09:36:32.916Z,29.85
2018-04-09T09:39:00.425Z,28.33
2018-04-09T09:41:27.952Z,27.72
2018-04-09T09:43:55.602Z,29.38
2018-04-09T09:46:23.136Z,29.08
2018-04-09T09:48:50.670Z,27.93
2018-04-09T09:51:18.271Z,27.56
2018-04-09T09:53:45.801Z,27.56
2018-04-09T09:56:13.403Z,27.78
2018-04-09T09:58:40.932Z,27.82
2018-04-09T10:01:10.227Z,28.29
2018-04-09T10:03:37.813Z,26.40
2018-04-09T10:06:05.340Z,26.15
2018-04-09T10:08:32.864Z,28.95
2018-04-09T10:11:00.394Z,25.34
2018-04-09T10:13:27.957Z,26.31
2018-04-09T10:15:55.513Z,29.13
2018-04-09T10:18:23.046Z,28.49
2018-04-09T10:20:50.580Z,28.19
2018-04-09T10:23:18.146Z,25.54
2018-04-09T10:25:45.782Z,25.21
2018-04-09T10:28:13.414Z,28.27
2018-04-09T10:30:40.942Z,28.57
2018-04-09T10:33:08.591Z,28.59
2018-04-09T10:35:36.093Z,27.91
2018-04-09T10:38:03.617Z,26.95
2018-04-09T10:40:31.581Z,28.34
2018-04-09T10:42:59.181Z,30.82
2018-04-09T10:45:26.710Z,31.76
2018-04-09T10:47:54.229Z,32.97
2018-04-09T10:50:21.844Z,32.57
2018-04-09T10:52:49.372Z,32.91
2018-04-09T10:55:16.969Z,33.33
2018-04-09T10:57:44.496Z,31.81
2018-04-09T11:00:12.206Z,31.76
2018-04-09T11:02:39.772Z,32.41
2018-04-09T11:05:07.290Z,32.98
2018-04-09T11:07:34.842Z,33.40
2018-04-09T11:10:02.380Z,34.01
2018-04-09T11:12:30.005Z,35.43
2018-04-09T11:14:57.536Z,35.35
2018-04-09T11:17:25.095Z,35.18
2018-04-09T11:19:52.630Z,35.89
2018-04-09T11:22:20.171Z,36.19
2018-04-09T11:24:47.788Z,35.94
2018-04-09T11:27:15.319Z,36.83
2018-04-09T11:29:42.889Z,37.10
2018-04-09T11:32:10.411Z,37.12
2018-04-09T11:34:38.045Z,36.65
2018-04-09T11:37:05.597Z,36.93
2018-04-09T11:39:33.142Z,37.71
2018-04-09T11:42:00.695Z,37.64
2018-04-09T11:44:28.285Z,37.60
2018-04-09T11:46:55.803Z,37.53
2018-04-09T11:49:23.375Z,38.21
2018-04-09T11:51:50.952Z,37.79
2018-04-09T11:54:18.483Z,37.76
2018-04-09T11:56:46.090Z,38.25
2018-04-09T11:59:13.602Z,39.03
2018-04-09T12:01:41.208Z,38.67
2018-04-09T12:04:08.726Z,38.64
2018-04-09T12:06:36.283Z,38.16
2018-04-09T12:09:03.820Z,38.76
2018-04-09T12:11:31.455Z,38.58
2018-04-09T12:13:58.977Z,38.58
2018-04-09T12:16:26.511Z,38.64
2018-04-09T12:18:54.061Z,38.94
2018-04-09T12:21:21.692Z,39.12
2018-04-09T12:23:49.203Z,38.92
2018-04-09T12:26:16.803Z,38.53
2018-04-09T12:28:44.414Z,38.41
2018-04-09T12:31:12.035Z,39.31
2018-04-09T12:33:39.554Z,38.99
2018-04-09T12:36:07.154Z,39.23
2018-04-09T12:38:34.715Z,38.79
2018-04-09T12:41:02.250Z,38.95
2018-04-09T12:43:29.776Z,38.81
2018-04-09T12:45:57.315Z,38.74
2018-04-09T12:48:24.956Z,38.63
2018-04-09T12:50:52.499Z,38.55
2018-04-09T12:53:20.069Z,38.81
2018-04-09T12:55:47.607Z,39.00
2018-04-09T12:58:15.142Z,38.64
2018-04-09T13:00:42.710Z,39.50
2018-04-09T13:03:10.264Z,39.50
2018-04-09T13:05:37.854Z,38.49
2018-04-09T13:08:05.429Z,39.25
2018-04-09T13:10:32.958Z,38.55
2018-04-09T13:13:00.472Z,39.55
2018-04-09T13:15:28.093Z,38.18
2018-04-09T13:17:55.629Z,38.72
2018-04-09T13:20:23.158Z,38.62
2018-04-09T13:22:50.690Z,38.75
2018-04-09T13:25:18.234Z,38.51
2018-04-09T13:27:45.763Z,38.92
2018-04-09T13:30:13.370Z,38.81
2018-04-09T13:32:40.927Z,39.26
2018-04-09T13:35:08.455Z,38.70
2018-04-09T13:37:36.031Z,38.58
2018-04-09T13:40:03.548Z,38.72
2018-04-09T13:42:31.067Z,38.18
2018-04-09T13:44:58.595Z,38.20
2018-04-09T13:47:26.114Z,38.22
2018-04-09T13:49:53.629Z,37.69
2018-04-09T13:52:21.164Z,37.77
2018-04-09T13:54:48.695Z,37.60
2018-04-09T13:57:16.206Z,37.49
2018-04-09T13:59:43.732Z,37.88
2018-04-09T14:02:11.276Z,38.29
2018-04-09T14:04:38.850Z,38.38
2018-04-09T14:07:06.454Z,37.96
2018-04-09T14:09:33.986Z,37.93
2018-04-09T14:12:01.510Z,37.62
2018-04-09T14:14:29.129Z,37.76
2018-04-09T14:16:56.696Z,37.66
2018-04-09T14:19:24.263Z,38.05
2018-04-09T14:21:51.787Z,38.15
2018-04-09T14:24:19.367Z,38.34
2018-04-09T14:26:46.910Z,38.65
2018-04-09T14:29:14.516Z,38.64
2018-04-09T14:31:42.045Z,38.51
2018-04-09T14:34:09.608Z,38.39
2018-04-09T14:36:37.116Z,38.34
2018-04-09T14:39:04.637Z,38.75
2018-04-09T14:41:32.206Z,37.99
2018-04-09T14:43:59.744Z,37.98
2018-04-09T14:46:27.369Z,38.01
2018-04-09T14:48:54.992Z,38.24
2018-04-09T14:51:22.507Z,38.20
2018-04-09T14:53:50.027Z,37.80
2018-04-09T14:56:17.566Z,38.13
2018-04-09T14:58:45.101Z,38.18
2018-04-09T15:01:12.685Z,38.37
2018-04-09T15:03:40.553Z,38.18
2018-04-09T15:06:08.096Z,38.08
2018-04-09T15:08:35.641Z,38.19
2018-04-09T15:11:03.159Z,38.51
2018-04-09T15:13:30.689Z,39.20
2018-04-09T15:15:58.220Z,39.51
2018-04-09T15:18:25.808Z,39.56
2018-04-09T15:20:53.439Z,39.54
2018-04-09T15:23:21.031Z,39.46
2018-04-09T15:25:48.546Z,39.39
2018-04-09T15:28:16.113Z,39.20
2018-04-09T15:30:43.636Z,39.38
2018-04-09T15:33:11.168Z,39.31
2018-04-09T15:35:38.732Z,39.48
2018-04-09T15:38:06.291Z,39.20
2018-04-09T15:40:33.809Z,38.82
2018-04-09T15:43:01.330Z,39.08
2018-04-09T15:45:28.850Z,38.97
2018-04-09T15:47:56.423Z,39.30
2018-04-09T15:50:23.954Z,39.30
2018-04-09T15:52:51.546Z,39.56
2018-04-09T15:55:19.171Z,39.73
2018-04-09T15:57:46.768Z,40.04
2018-04-09T16:00:14.355Z,39.97
2018-04-09T16:02:41.995Z,40.60
2018-04-09T16:05:09.520Z,40.02
2018-04-09T16:07:39.980Z,40.08
2018-04-09T16:10:07.506Z,40.31
2018-04-09T16:12:35.202Z,40.57
2018-04-09T16:15:02.724Z,40.92
2018-04-09T16:17:30.319Z,40.30
2018-04-09T16:19:57.884Z,40.73
2018-04-09T16:22:25.527Z,40.68
2018-04-09T16:24:53.081Z,40.16
2018-04-09T16:27:20.595Z,39.54
2018-04-09T16:29:48.124Z,39.77
2018-04-09T16:32:15.684Z,39.34
2018-04-09T16:34:43.211Z,39.18
2018-04-09T16:37:10.855Z,39.33
2018-04-09T16:39:38.491Z,38.84
2018-04-09T16:42:06.037Z,38.95
2018-04-09T16:44:34.103Z,38.56
2018-04-09T16:47:01.625Z,38.83
2018-04-09T16:49:29.167Z,38.99
2018-04-09T16:51:56.699Z,38.81
2018-04-09T16:54:24.230Z,38.98
2018-04-09T16:56:51.746Z,39.19
2018-04-09T16:59:19.362Z,39.22
2018-04-09T17:01:46.879Z,39.04
2018-04-09T17:04:14.454Z,39.50
2018-04-09T17:06:42.001Z,39.02
2018-04-09T17:09:09.681Z,38.81
2018-04-09T17:11:37.202Z,39.20
2018-04-09T17:14:04.727Z,39.02
2018-04-09T17:16:32.238Z,39.12
2018-04-09T17:18:59.833Z,39.06
2018-04-09T17:21:27.454Z,39.21
2018-04-09T17:23:55.182Z,39.74
2018-04-09T17:26:22.824Z,39.45
2018-04-09T17:28:50.389Z,39.72
2018-04-09T17:31:17.906Z,40.10
2018-04-09T17:33:45.422Z,39.75
2018-04-09T17:36:12.942Z,40.30
2018-04-09T17:38:40.635Z,40.35
2018-04-09T17:41:08.285Z,40.57
2018-04-09T17:43:35.871Z,40.92
2018-04-09T17:46:03.427Z,40.88
2018-04-09T17:48:31.010Z,41.14
2018-04-09T17:50:58.730Z,41.19
2018-04-09T17:53:26.275Z,41.64
2018-04-09T17:55:53.866Z,41.60
2018-04-09T17:58:21.499Z,41.86
2018-04-09T18:00:49.183Z,42.20
2018-04-09T18:03:16.730Z,42.33
2018-04-09T18:05:44.398Z,42.85
2018-04-09T18:08:11.962Z,42.74
2018-04-09T18:10:39.624Z,42.83
2018-04-09T18:13:07.152Z,43.14
2018-04-09T18:15:34.788Z,43.19
2018-04-09T18:18:02.359Z,43.53
2018-04-09T18:20:30.067Z,43.49
2018-04-09T18:22:57.608Z,43.71
2018-04-09T18:25:25.138Z,43.76
2018-04-09T18:27:52.667Z,44.13
2018-04-09T18:30:20.302Z,44.11
2018-04-09T18:32:47.871Z,43.92
2018-04-09T18:35:15.384Z,44.20
2018-04-09T18:37:42.911Z,44.12
2018-04-09T18:40:10.462Z,44.02
2018-04-09T18:42:38.107Z,44.88
2018-04-09T18:45:05.678Z,44.58
2018-04-09T18:47:33.192Z,44.79
2018-04-09T18:50:00.793Z,44.83
2018-04-09T18:52:28.306Z,45.12
2018-04-09T18:54:55.835Z,45.27
2018-04-09T18:57:23.366Z,45.32
2018-04-09T18:59:50.927Z,45.46
2018-04-09T19:02:18.442Z,45.82
2018-04-09T19:04:46.047Z,45.85
2018-04-09T19:07:13.570Z,45.83
2018-04-09T19:09:41.137Z,46.06
2018-04-09T19:12:08.675Z,46.36
2018-04-09T19:14:36.282Z,46.43
2018-04-09T19:17:03.815Z,46.45
2018-04-09T19:19:31.381Z,46.45
2018-04-09T19:21:58.886Z,46.58
2018-04-09T19:24:26.411Z,46.61
2018-04-09T19:26:53.922Z,46.84
2018-04-09T19:29:21.485Z,46.81
2018-04-09T19:31:49.008Z,47.19
2018-04-09T19:34:16.565Z,47.17
2018-04-09T19:36:49.651Z,47.38
2018-04-09T19:39:22.743Z,47.53
2018-04-09T19:41:50.271Z,47.67
2018-04-09T19:44:17.863Z,47.55
2018-04-09T19:46:45.381Z,48.13
2018-04-09T19:49:12.945Z,48.44
2018-04-09T19:51:40.462Z,47.99
2018-04-09T19:54:07.985Z,48.18
2018-04-09T19:56:35.564Z,48.33
2018-04-09T19:59:03.078Z,48.43
2018-04-09T20:01:30.675Z,48.59
2018-04-09T20:03:58.206Z,48.39
2018-04-09T20:06:25.786Z,48.59
2018-04-09T20:08:53.327Z,48.51
2018-04-09T20:11:20.906Z,48.68
2018-04-09T20:13:48.467Z,48.77
2018-04-09T20:16:15.991Z,48.43
2018-04-09T20:18:43.603Z,48.75
2018-04-09T20:21:11.147Z,49.36
2018-04-09T20:23:38.811Z,49.38
2018-04-09T20:26:06.376Z,49.30
2018-04-09T20:28:33.930Z,49.34
2018-04-09T20:31:01.448Z,49.66
2018-04-09T20:33:28.974Z,50.01
2018-04-09T20:35:56.494Z,49.35
2018-04-09T20:38:24.077Z,49.79
2018-04-09T20:40:51.745Z,49.52
2018-04-09T20:43:19.290Z,49.20
2018-04-09T20:45:46.851Z,49.16
2018-04-09T20:48:14.385Z,48.85
2018-04-09T20:50:41.971Z,48.84
2018-04-09T20:53:09.542Z,48.85
2018-04-09T20:55:37.067Z,49.04
2018-04-09T20:58:04.733Z,49.31
2018-04-09T21:00:32.250Z,49.38
2018-04-09T21:02:59.770Z,49.27
2018-04-09T21:05:27.310Z,49.61
2018-04-09T21:07:54.832Z,49.87
2018-04-09T21:10:22.455Z,49.94
2018-04-09T21:12:49.983Z,50.12
2018-04-09T21:15:17.511Z,50.47
2018-04-09T21:17:45.132Z,50.81
2018-04-09T21:20:12.708Z,51.03
2018-04-09T21:22:40.223Z,51.46
2018-04-09T21:25:07.809Z,51.71
2018-04-09T21:27:35.370Z,51.89
2018-04-09T21:30:02.958Z,52.22
2018-04-09T21:32:30.604Z,52.51
2018-04-09T21:34:58.123Z,52.61
2018-04-09T21:37:25.650Z,52.78
2018-04-09T21:39:53.290Z,53.14
2018-04-09T21:42:20.834Z,53.26
2018-04-09T21:44:48.512Z,53.50
2018-04-09T21:47:16.174Z,53.78
2018-04-09T21:49:43.725Z,53.84
2018-04-09T21:52:11.295Z,53.94
2018-04-09T21:54:38.841Z,54.19
2018-04-09T21:57:06.366Z,54.48
2018-04-09T21:59:33.974Z,54.66
2018-04-09T22:02:01.509Z,54.92
2018-04-09T22:04:29.042Z,54.95
2018-04-09T22:06:56.607Z,55.26
2018-04-09T22:09:24.202Z,55.50
2018-04-09T22:11:51.758Z,55.55
2018-04-09T22:14:19.318Z,55.74
2018-04-09T22:16:46.878Z,55.98
2018-04-09T22:19:14.394Z,56.32
2018-04-09T22:21:41.908Z,56.32
2018-04-09T22:24:09.459Z,56.31
2018-04-09T22:26:37.003Z,56.75
2018-04-09T22:29:04.519Z,56.81
2018-04-09T22:31:32.138Z,57.03
2018-04-09T22:33:59.699Z,56.92
2018-04-09T22:36:27.361Z,57.04
2018-04-09T22:38:54.886Z,57.13
2018-04-09T22:41:22.415Z,57.13
2018-04-09T22:43:49.926Z,57.39
2018-04-09T22:46:17.482Z,57.31
2018-04-09T22:48:45.068Z,57.59
2018-04-09T22:51:12.586Z,57.64
2018-04-09T22:53:40.179Z,57.79
2018-04-09T22:56:07.748Z,57.81
2018-04-09T22:58:35.266Z,57.96
2018-04-09T23:01:02.795Z,58.15
2018-04-09T23:03:30.431Z,58.29
2018-04-09T23:05:57.947Z,58.63
2018-04-09T23:08:25.507Z,58.61
2018-04-09T23:10:53.098Z,58.64
2018-04-09T23:13:20.616Z,58.74
2018-04-09T23:15:48.223Z,58.95
2018-04-09T23:18:15.735Z,59.03
2018-04-09T23:20:43.252Z,59.18
2018-04-09T23:23:10.766Z,59.28
2018-04-09T23:25:38.373Z,59.41
2018-04-09T23:28:05.886Z,59.42
2018-04-09T23:30:33.451Z,59.68
2018-04-09T23:33:01.001Z,59.72
2018-04-09T23:35:28.534Z,59.64
2018-04-09T23:37:56.042Z,59.76
2018-04-09T23:40:23.614Z,59.82
2018-04-09T23:42:51.158Z,59.87
2018-04-09T23:45:18.734Z,59.85
2018-04-09T23:47:46.249Z,60.24
2018-04-09T23:50:13.867Z,60.25
2018-04-09T23:52:41.417Z,60.37
2018-04-09T23:55:08.947Z,60.47
2018-04-09T23:57:36.514Z,60.34
